sensor_id;sensor_type;location;lat;lon;timestamp;P1;durP1;ratioP1;P2;durP2;ratioP2
19434;SDS011;9853;50.848;4.108;2023-04-27T00:00:06;12.13;;;6.23;;
19434;SDS011;9853;50.848;4.108;2023-04-27T00:02:10;12.30;;;6.10;;
19434;SDS011;9853;50.848;4.108;2023-04-27T00:04:10;10.20;;;6.00;;
19434;SDS011;9853;50.848;4.108;2023-04-27T00:06:13;16.27;;;6.70;;
19434;SDS011;9853;50.848;4.108;2023-04-27T00:08:14;15.37;;;6.17;;
19434;SDS011;9853;50.848;4.108;2023-04-27T00:10:14;12.80;;;6.30;;
19434;SDS011;9853;50.848;4.108;2023-04-27T00:12:15;10.97;;;6.37;;
19434;SDS011;9853;50.848;4.108;2023-04-27T00:14:16;12.63;;;6.20;;
19434;SDS011;9853;50.848;4.108;2023-04-27T00:16:17;12.37;;;6.80;;
19434;SDS011;9853;50.848;4.108;2023-04-27T00:18:18;13.13;;;6.83;;
19434;SDS011;9853;50.848;4.108;2023-04-27T00:20:19;16.87;;;7.33;;
19434;SDS011;9853;50.848;4.108;2023-04-27T00:22:20;12.83;;;7.10;;
19434;SDS011;9853;50.848;4.108;2023-04-27T00:24:21;14.13;;;7.53;;
19434;SDS011;9853;50.848;4.108;2023-04-27T00:26:22;12.53;;;7.00;;
19434;SDS011;9853;50.848;4.108;2023-04-27T00:28:24;13.50;;;6.93;;
19434;SDS011;9853;50.848;4.108;2023-04-27T00:30:25;13.63;;;7.13;;
19434;SDS011;9853;50.848;4.108;2023-04-27T00:32:26;15.23;;;7.30;;
19434;SDS011;9853;50.848;4.108;2023-04-27T00:34:27;15.10;;;7.07;;
19434;SDS011;9853;50.848;4.108;2023-04-27T00:36:28;15.97;;;7.33;;
19434;SDS011;9853;50.848;4.108;2023-04-27T00:38:29;12.77;;;7.03;;
19434;SDS011;9853;50.848;4.108;2023-04-27T00:40:32;15.33;;;7.07;;
19434;SDS011;9853;50.848;4.108;2023-04-27T00:42:33;21.57;;;7.27;;
19434;SDS011;9853;50.848;4.108;2023-04-27T00:44:34;16.00;;;7.90;;
19434;SDS011;9853;50.848;4.108;2023-04-27T00:46:35;14.63;;;8.07;;
19434;SDS011;9853;50.848;4.108;2023-04-27T00:48:36;16.73;;;7.03;;
19434;SDS011;9853;50.848;4.108;2023-04-27T00:50:37;12.73;;;7.73;;
19434;SDS011;9853;50.848;4.108;2023-04-27T00:52:39;17.80;;;7.60;;
19434;SDS011;9853;50.848;4.108;2023-04-27T00:54:41;16.53;;;7.50;;
19434;SDS011;9853;50.848;4.108;2023-04-27T00:56:43;16.53;;;8.10;;
19434;SDS011;9853;50.848;4.108;2023-04-27T00:58:44;19.23;;;7.97;;
19434;SDS011;9853;50.848;4.108;2023-04-27T01:00:45;13.87;;;7.27;;
19434;SDS011;9853;50.848;4.108;2023-04-27T01:02:45;17.77;;;7.37;;
19434;SDS011;9853;50.848;4.108;2023-04-27T01:04:51;17.50;;;7.60;;
19434;SDS011;9853;50.848;4.108;2023-04-27T01:06:53;14.63;;;8.20;;
19434;SDS011;9853;50.848;4.108;2023-04-27T01:08:54;16.03;;;7.37;;
19434;SDS011;9853;50.848;4.108;2023-04-27T01:10:55;14.03;;;7.50;;
19434;SDS011;9853;50.848;4.108;2023-04-27T01:12:56;14.57;;;8.07;;
19434;SDS011;9853;50.848;4.108;2023-04-27T01:14:57;19.47;;;8.13;;
19434;SDS011;9853;50.848;4.108;2023-04-27T01:16:57;16.13;;;7.87;;
19434;SDS011;9853;50.848;4.108;2023-04-27T01:18:58;23.67;;;8.33;;
19434;SDS011;9853;50.848;4.108;2023-04-27T01:20:59;18.20;;;8.83;;
19434;SDS011;9853;50.848;4.108;2023-04-27T01:23:00;15.30;;;8.17;;
19434;SDS011;9853;50.848;4.108;2023-04-27T01:25:01;14.63;;;7.87;;
19434;SDS011;9853;50.848;4.108;2023-04-27T01:27:04;12.93;;;7.50;;
19434;SDS011;9853;50.848;4.108;2023-04-27T01:29:05;17.53;;;8.23;;
19434;SDS011;9853;50.848;4.108;2023-04-27T01:31:06;19.17;;;7.57;;
19434;SDS011;9853;50.848;4.108;2023-04-27T01:33:06;14.03;;;7.50;;
19434;SDS011;9853;50.848;4.108;2023-04-27T01:35:07;17.43;;;7.90;;
19434;SDS011;9853;50.848;4.108;2023-04-27T01:37:08;22.67;;;8.13;;
19434;SDS011;9853;50.848;4.108;2023-04-27T01:39:09;18.27;;;7.77;;
19434;SDS011;9853;50.848;4.108;2023-04-27T01:41:10;13.17;;;7.50;;
19434;SDS011;9853;50.848;4.108;2023-04-27T01:43:11;16.17;;;8.00;;
19434;SDS011;9853;50.848;4.108;2023-04-27T01:45:12;17.63;;;8.03;;
19434;SDS011;9853;50.848;4.108;2023-04-27T01:47:13;21.87;;;8.03;;
19434;SDS011;9853;50.848;4.108;2023-04-27T01:49:15;15.67;;;8.13;;
19434;SDS011;9853;50.848;4.108;2023-04-27T01:51:16;14.07;;;7.93;;
19434;SDS011;9853;50.848;4.108;2023-04-27T01:53:18;17.17;;;8.87;;
19434;SDS011;9853;50.848;4.108;2023-04-27T01:55:19;20.53;;;8.67;;
19434;SDS011;9853;50.848;4.108;2023-04-27T01:57:20;17.27;;;7.93;;
19434;SDS011;9853;50.848;4.108;2023-04-27T01:59:21;22.40;;;9.13;;
19434;SDS011;9853;50.848;4.108;2023-04-27T02:01:21;18.97;;;8.63;;
19434;SDS011;9853;50.848;4.108;2023-04-27T02:03:22;15.90;;;9.37;;
19434;SDS011;9853;50.848;4.108;2023-04-27T02:05:24;18.30;;;8.27;;
19434;SDS011;9853;50.848;4.108;2023-04-27T02:07:26;19.93;;;9.43;;
19434;SDS011;9853;50.848;4.108;2023-04-27T02:09:27;17.47;;;9.00;;
19434;SDS011;9853;50.848;4.108;2023-04-27T02:11:27;14.87;;;8.97;;
19434;SDS011;9853;50.848;4.108;2023-04-27T02:13:28;15.80;;;8.97;;
19434;SDS011;9853;50.848;4.108;2023-04-27T02:15:29;16.73;;;8.77;;
19434;SDS011;9853;50.848;4.108;2023-04-27T02:17:30;15.73;;;8.63;;
19434;SDS011;9853;50.848;4.108;2023-04-27T02:19:33;21.70;;;9.27;;
19434;SDS011;9853;50.848;4.108;2023-04-27T02:21:35;17.83;;;9.00;;
19434;SDS011;9853;50.848;4.108;2023-04-27T02:23:36;22.10;;;9.20;;
19434;SDS011;9853;50.848;4.108;2023-04-27T02:25:37;16.20;;;9.17;;
19434;SDS011;9853;50.848;4.108;2023-04-27T02:27:38;22.63;;;9.40;;
19434;SDS011;9853;50.848;4.108;2023-04-27T02:29:40;17.57;;;9.90;;
19434;SDS011;9853;50.848;4.108;2023-04-27T02:31:41;19.70;;;9.20;;
19434;SDS011;9853;50.848;4.108;2023-04-27T02:33:42;18.43;;;9.40;;
19434;SDS011;9853;50.848;4.108;2023-04-27T02:35:42;18.27;;;9.87;;
19434;SDS011;9853;50.848;4.108;2023-04-27T02:37:43;16.67;;;9.10;;
19434;SDS011;9853;50.848;4.108;2023-04-27T02:39:44;18.43;;;10.23;;
19434;SDS011;9853;50.848;4.108;2023-04-27T02:41:45;18.87;;;10.17;;
19434;SDS011;9853;50.848;4.108;2023-04-27T02:43:47;16.73;;;8.90;;
19434;SDS011;9853;50.848;4.108;2023-04-27T02:45:50;16.77;;;9.17;;
19434;SDS011;9853;50.848;4.108;2023-04-27T02:47:51;17.23;;;9.43;;
19434;SDS011;9853;50.848;4.108;2023-04-27T02:49:52;18.87;;;9.37;;
19434;SDS011;9853;50.848;4.108;2023-04-27T02:51:52;19.33;;;10.20;;
19434;SDS011;9853;50.848;4.108;2023-04-27T02:53:53;21.07;;;10.23;;
19434;SDS011;9853;50.848;4.108;2023-04-27T02:55:54;21.93;;;10.27;;
19434;SDS011;9853;50.848;4.108;2023-04-27T02:57:55;26.27;;;10.73;;
19434;SDS011;9853;50.848;4.108;2023-04-27T02:59:56;20.47;;;10.07;;
19434;SDS011;9853;50.848;4.108;2023-04-27T03:01:57;18.67;;;10.10;;
19434;SDS011;9853;50.848;4.108;2023-04-27T03:03:58;18.37;;;10.73;;
19434;SDS011;9853;50.848;4.108;2023-04-27T03:05:59;18.83;;;10.60;;
19434;SDS011;9853;50.848;4.108;2023-04-27T03:07:59;22.53;;;10.23;;
19434;SDS011;9853;50.848;4.108;2023-04-27T03:10:00;20.43;;;9.97;;
19434;SDS011;9853;50.848;4.108;2023-04-27T03:12:03;16.67;;;9.50;;
19434;SDS011;9853;50.848;4.108;2023-04-27T03:14:04;17.40;;;10.27;;
19434;SDS011;9853;50.848;4.108;2023-04-27T03:16:06;19.47;;;9.70;;
19434;SDS011;9853;50.848;4.108;2023-04-27T03:18:08;15.97;;;9.80;;
19434;SDS011;9853;50.848;4.108;2023-04-27T03:20:09;21.37;;;9.60;;
19434;SDS011;9853;50.848;4.108;2023-04-27T03:22:11;20.37;;;9.93;;
19434;SDS011;9853;50.848;4.108;2023-04-27T03:24:12;24.30;;;10.07;;
19434;SDS011;9853;50.848;4.108;2023-04-27T03:26:13;20.33;;;10.27;;
19434;SDS011;9853;50.848;4.108;2023-04-27T03:28:14;21.63;;;10.70;;
19434;SDS011;9853;50.848;4.108;2023-04-27T03:30:16;23.13;;;10.87;;
19434;SDS011;9853;50.848;4.108;2023-04-27T03:32:16;22.30;;;11.10;;
19434;SDS011;9853;50.848;4.108;2023-04-27T03:34:17;22.30;;;10.40;;
19434;SDS011;9853;50.848;4.108;2023-04-27T03:36:20;17.77;;;10.13;;
19434;SDS011;9853;50.848;4.108;2023-04-27T03:38:20;18.57;;;10.10;;
19434;SDS011;9853;50.848;4.108;2023-04-27T03:40:21;24.87;;;10.60;;
19434;SDS011;9853;50.848;4.108;2023-04-27T03:42:22;23.07;;;10.93;;
19434;SDS011;9853;50.848;4.108;2023-04-27T03:44:23;29.30;;;11.60;;
19434;SDS011;9853;50.848;4.108;2023-04-27T03:46:25;20.83;;;11.00;;
19434;SDS011;9853;50.848;4.108;2023-04-27T03:48:26;20.87;;;11.23;;
19434;SDS011;9853;50.848;4.108;2023-04-27T03:50:28;20.53;;;10.87;;
19434;SDS011;9853;50.848;4.108;2023-04-27T03:52:29;25.43;;;12.00;;
19434;SDS011;9853;50.848;4.108;2023-04-27T03:54:30;23.17;;;11.10;;
19434;SDS011;9853;50.848;4.108;2023-04-27T03:56:31;28.33;;;12.37;;
19434;SDS011;9853;50.848;4.108;2023-04-27T03:58:32;21.90;;;11.80;;
19434;SDS011;9853;50.848;4.108;2023-04-27T04:00:53;23.37;;;11.93;;
19434;SDS011;9853;50.848;4.108;2023-04-27T04:02:54;22.23;;;11.17;;
19434;SDS011;9853;50.848;4.108;2023-04-27T04:04:55;18.83;;;11.23;;
19434;SDS011;9853;50.848;4.108;2023-04-27T04:06:56;24.20;;;11.93;;
19434;SDS011;9853;50.848;4.108;2023-04-27T04:08:58;22.90;;;11.97;;
19434;SDS011;9853;50.848;4.108;2023-04-27T04:10:59;27.03;;;11.83;;
19434;SDS011;9853;50.848;4.108;2023-04-27T04:13:01;38.23;;;12.83;;
19434;SDS011;9853;50.848;4.108;2023-04-27T04:15:03;19.80;;;11.03;;
19434;SDS011;9853;50.848;4.108;2023-04-27T04:17:07;22.97;;;12.10;;
19434;SDS011;9853;50.848;4.108;2023-04-27T04:19:10;17.77;;;11.17;;
19434;SDS011;9853;50.848;4.108;2023-04-27T04:21:11;29.60;;;11.80;;
19434;SDS011;9853;50.848;4.108;2023-04-27T04:23:11;22.67;;;12.20;;
19434;SDS011;9853;50.848;4.108;2023-04-27T04:25:12;30.33;;;11.87;;
19434;SDS011;9853;50.848;4.108;2023-04-27T04:27:15;22.53;;;12.20;;
19434;SDS011;9853;50.848;4.108;2023-04-27T04:29:16;25.90;;;12.33;;
19434;SDS011;9853;50.848;4.108;2023-04-27T04:31:17;22.13;;;11.33;;
19434;SDS011;9853;50.848;4.108;2023-04-27T04:33:18;19.00;;;11.13;;
19434;SDS011;9853;50.848;4.108;2023-04-27T04:35:19;22.73;;;11.77;;
19434;SDS011;9853;50.848;4.108;2023-04-27T04:37:21;21.17;;;11.33;;
19434;SDS011;9853;50.848;4.108;2023-04-27T04:39:23;21.87;;;11.53;;
19434;SDS011;9853;50.848;4.108;2023-04-27T04:41:24;27.07;;;12.50;;
19434;SDS011;9853;50.848;4.108;2023-04-27T04:43:25;24.70;;;11.83;;
19434;SDS011;9853;50.848;4.108;2023-04-27T04:45:26;23.40;;;11.87;;
19434;SDS011;9853;50.848;4.108;2023-04-27T04:47:27;32.67;;;12.60;;
19434;SDS011;9853;50.848;4.108;2023-04-27T04:49:31;20.50;;;11.80;;
19434;SDS011;9853;50.848;4.108;2023-04-27T04:51:32;26.33;;;11.63;;
19434;SDS011;9853;50.848;4.108;2023-04-27T04:53:33;28.67;;;11.50;;
19434;SDS011;9853;50.848;4.108;2023-04-27T04:55:33;24.57;;;11.67;;
19434;SDS011;9853;50.848;4.108;2023-04-27T04:57:35;25.10;;;11.97;;
19434;SDS011;9853;50.848;4.108;2023-04-27T04:59:35;24.37;;;11.87;;
19434;SDS011;9853;50.848;4.108;2023-04-27T05:01:36;27.73;;;11.73;;
19434;SDS011;9853;50.848;4.108;2023-04-27T05:03:37;23.67;;;11.40;;
19434;SDS011;9853;50.848;4.108;2023-04-27T05:05:38;28.00;;;12.13;;
19434;SDS011;9853;50.848;4.108;2023-04-27T05:07:39;34.63;;;12.40;;
19434;SDS011;9853;50.848;4.108;2023-04-27T05:09:39;27.20;;;12.33;;
19434;SDS011;9853;50.848;4.108;2023-04-27T05:11:40;22.03;;;11.53;;
19434;SDS011;9853;50.848;4.108;2023-04-27T05:13:41;21.73;;;11.10;;
19434;SDS011;9853;50.848;4.108;2023-04-27T05:15:42;20.97;;;11.10;;
19434;SDS011;9853;50.848;4.108;2023-04-27T05:17:43;24.93;;;11.50;;
19434;SDS011;9853;50.848;4.108;2023-04-27T05:19:44;27.67;;;11.60;;
19434;SDS011;9853;50.848;4.108;2023-04-27T05:21:45;22.67;;;10.87;;
19434;SDS011;9853;50.848;4.108;2023-04-27T05:23:45;22.93;;;10.97;;
19434;SDS011;9853;50.848;4.108;2023-04-27T05:25:47;22.90;;;10.87;;
19434;SDS011;9853;50.848;4.108;2023-04-27T05:27:47;25.53;;;11.40;;
19434;SDS011;9853;50.848;4.108;2023-04-27T05:29:48;26.27;;;12.00;;
19434;SDS011;9853;50.848;4.108;2023-04-27T05:31:49;23.77;;;11.60;;
19434;SDS011;9853;50.848;4.108;2023-04-27T05:33:50;30.97;;;11.87;;
19434;SDS011;9853;50.848;4.108;2023-04-27T05:35:51;26.50;;;11.07;;
19434;SDS011;9853;50.848;4.108;2023-04-27T05:37:51;26.13;;;12.37;;
19434;SDS011;9853;50.848;4.108;2023-04-27T05:39:52;27.87;;;12.43;;
19434;SDS011;9853;50.848;4.108;2023-04-27T05:41:53;29.73;;;12.03;;
19434;SDS011;9853;50.848;4.108;2023-04-27T05:43:54;33.50;;;12.87;;
19434;SDS011;9853;50.848;4.108;2023-04-27T05:45:54;23.40;;;12.03;;
19434;SDS011;9853;50.848;4.108;2023-04-27T05:47:55;26.17;;;12.67;;
19434;SDS011;9853;50.848;4.108;2023-04-27T05:49:56;27.37;;;11.50;;
19434;SDS011;9853;50.848;4.108;2023-04-27T05:51:57;24.23;;;12.10;;
19434;SDS011;9853;50.848;4.108;2023-04-27T05:53:58;23.43;;;11.57;;
19434;SDS011;9853;50.848;4.108;2023-04-27T05:56:00;27.47;;;12.03;;
19434;SDS011;9853;50.848;4.108;2023-04-27T05:58:03;27.33;;;12.40;;
19434;SDS011;9853;50.848;4.108;2023-04-27T06:00:04;25.03;;;11.47;;
19434;SDS011;9853;50.848;4.108;2023-04-27T06:02:12;21.77;;;11.37;;
19434;SDS011;9853;50.848;4.108;2023-04-27T06:04:13;21.57;;;11.13;;
19434;SDS011;9853;50.848;4.108;2023-04-27T06:06:14;22.97;;;11.30;;
19434;SDS011;9853;50.848;4.108;2023-04-27T06:08:14;25.07;;;11.80;;
19434;SDS011;9853;50.848;4.108;2023-04-27T06:10:15;20.33;;;10.60;;
19434;SDS011;9853;50.848;4.108;2023-04-27T06:12:17;22.87;;;11.03;;
19434;SDS011;9853;50.848;4.108;2023-04-27T06:14:17;25.30;;;11.03;;
19434;SDS011;9853;50.848;4.108;2023-04-27T06:16:18;25.33;;;10.47;;
19434;SDS011;9853;50.848;4.108;2023-04-27T06:18:20;18.20;;;9.87;;
19434;SDS011;9853;50.848;4.108;2023-04-27T06:20:21;24.33;;;10.70;;
19434;SDS011;9853;50.848;4.108;2023-04-27T06:22:21;22.27;;;10.83;;
19434;SDS011;9853;50.848;4.108;2023-04-27T06:24:22;23.47;;;11.07;;
19434;SDS011;9853;50.848;4.108;2023-04-27T06:26:23;21.57;;;11.23;;
19434;SDS011;9853;50.848;4.108;2023-04-27T06:28:24;48.60;;;12.53;;
19434;SDS011;9853;50.848;4.108;2023-04-27T06:30:25;21.87;;;11.53;;
19434;SDS011;9853;50.848;4.108;2023-04-27T06:32:26;24.70;;;12.30;;
19434;SDS011;9853;50.848;4.108;2023-04-27T06:34:27;21.20;;;11.07;;
19434;SDS011;9853;50.848;4.108;2023-04-27T06:36:27;18.63;;;10.87;;
19434;SDS011;9853;50.848;4.108;2023-04-27T06:38:28;21.53;;;11.93;;
19434;SDS011;9853;50.848;4.108;2023-04-27T06:40:30;23.20;;;11.17;;
19434;SDS011;9853;50.848;4.108;2023-04-27T06:42:30;22.70;;;10.97;;
19434;SDS011;9853;50.848;4.108;2023-04-27T06:44:31;25.20;;;11.87;;
19434;SDS011;9853;50.848;4.108;2023-04-27T06:46:32;21.20;;;10.77;;
19434;SDS011;9853;50.848;4.108;2023-04-27T06:48:33;25.60;;;10.97;;
19434;SDS011;9853;50.848;4.108;2023-04-27T06:50:34;20.13;;;11.20;;
19434;SDS011;9853;50.848;4.108;2023-04-27T06:52:34;21.50;;;11.57;;
19434;SDS011;9853;50.848;4.108;2023-04-27T06:54:35;19.00;;;11.07;;
19434;SDS011;9853;50.848;4.108;2023-04-27T06:56:36;25.07;;;12.27;;
19434;SDS011;9853;50.848;4.108;2023-04-27T06:58:37;25.33;;;11.67;;
19434;SDS011;9853;50.848;4.108;2023-04-27T07:00:38;25.50;;;11.87;;
19434;SDS011;9853;50.848;4.108;2023-04-27T07:02:39;23.93;;;12.37;;
19434;SDS011;9853;50.848;4.108;2023-04-27T07:04:40;27.10;;;11.87;;
19434;SDS011;9853;50.848;4.108;2023-04-27T07:06:42;27.67;;;12.23;;
19434;SDS011;9853;50.848;4.108;2023-04-27T07:08:43;23.13;;;12.13;;
19434;SDS011;9853;50.848;4.108;2023-04-27T07:10:43;25.10;;;12.47;;
19434;SDS011;9853;50.848;4.108;2023-04-27T07:12:44;26.27;;;12.03;;
19434;SDS011;9853;50.848;4.108;2023-04-27T07:14:45;24.60;;;10.80;;
19434;SDS011;9853;50.848;4.108;2023-04-27T07:16:46;23.50;;;12.27;;
19434;SDS011;9853;50.848;4.108;2023-04-27T07:18:47;26.58;;;12.43;;
19434;SDS011;9853;50.848;4.108;2023-04-27T07:20:48;24.95;;;11.48;;
19434;SDS011;9853;50.848;4.108;2023-04-27T07:22:48;22.38;;;11.20;;
19434;SDS011;9853;50.848;4.108;2023-04-27T07:24:49;21.38;;;11.43;;
19434;SDS011;9853;50.848;4.108;2023-04-27T07:26:50;24.70;;;11.85;;
19434;SDS011;9853;50.848;4.108;2023-04-27T07:28:51;21.10;;;12.23;;
19434;SDS011;9853;50.848;4.108;2023-04-27T07:30:52;21.27;;;11.98;;
19434;SDS011;9853;50.848;4.108;2023-04-27T07:32:52;24.20;;;11.45;;
19434;SDS011;9853;50.848;4.108;2023-04-27T07:34:54;23.85;;;11.27;;
19434;SDS011;9853;50.848;4.108;2023-04-27T07:36:55;20.25;;;11.57;;
19434;SDS011;9853;50.848;4.108;2023-04-27T07:38:56;25.20;;;11.68;;
19434;SDS011;9853;50.848;4.108;2023-04-27T07:40:58;22.67;;;11.85;;
19434;SDS011;9853;50.848;4.108;2023-04-27T07:43:00;27.77;;;12.63;;
19434;SDS011;9853;50.848;4.108;2023-04-27T07:45:01;20.50;;;11.95;;
19434;SDS011;9853;50.848;4.108;2023-04-27T07:47:02;17.05;;;10.85;;
19434;SDS011;9853;50.848;4.108;2023-04-27T07:49:04;21.20;;;12.38;;
19434;SDS011;9853;50.848;4.108;2023-04-27T07:51:05;19.92;;;11.93;;
19434;SDS011;9853;50.848;4.108;2023-04-27T07:53:06;21.70;;;11.02;;
19434;SDS011;9853;50.848;4.108;2023-04-27T07:55:07;19.95;;;11.70;;
19434;SDS011;9853;50.848;4.108;2023-04-27T07:57:08;21.67;;;12.27;;
19434;SDS011;9853;50.848;4.108;2023-04-27T07:59:10;21.55;;;10.82;;
19434;SDS011;9853;50.848;4.108;2023-04-27T08:01:11;22.45;;;12.02;;
19434;SDS011;9853;50.848;4.108;2023-04-27T08:03:12;20.83;;;12.02;;
19434;SDS011;9853;50.848;4.108;2023-04-27T08:05:13;30.17;;;13.63;;
19434;SDS011;9853;50.848;4.108;2023-04-27T08:07:17;24.30;;;14.05;;
19434;SDS011;9853;50.848;4.108;2023-04-27T08:09:17;21.73;;;12.52;;
19434;SDS011;9853;50.848;4.108;2023-04-27T08:11:18;20.27;;;11.95;;
19434;SDS011;9853;50.848;4.108;2023-04-27T08:13:19;22.65;;;11.93;;
19434;SDS011;9853;50.848;4.108;2023-04-27T08:15:20;20.40;;;12.50;;
19434;SDS011;9853;50.848;4.108;2023-04-27T08:17:21;26.05;;;12.95;;
19434;SDS011;9853;50.848;4.108;2023-04-27T08:19:21;24.25;;;13.48;;
19434;SDS011;9853;50.848;4.108;2023-04-27T08:21:22;25.92;;;12.75;;
19434;SDS011;9853;50.848;4.108;2023-04-27T08:23:26;25.45;;;12.35;;
19434;SDS011;9853;50.848;4.108;2023-04-27T08:25:28;23.23;;;12.07;;
19434;SDS011;9853;50.848;4.108;2023-04-27T08:27:29;18.90;;;10.95;;
19434;SDS011;9853;50.848;4.108;2023-04-27T08:29:30;19.55;;;11.85;;
19434;SDS011;9853;50.848;4.108;2023-04-27T08:31:31;20.80;;;10.52;;
19434;SDS011;9853;50.848;4.108;2023-04-27T08:33:32;18.77;;;10.93;;
19434;SDS011;9853;50.848;4.108;2023-04-27T08:35:33;17.13;;;10.30;;
19434;SDS011;9853;50.848;4.108;2023-04-27T08:37:34;21.90;;;10.38;;
19434;SDS011;9853;50.848;4.108;2023-04-27T08:39:35;16.65;;;10.35;;
19434;SDS011;9853;50.848;4.108;2023-04-27T08:41:35;17.27;;;8.98;;
19434;SDS011;9853;50.848;4.108;2023-04-27T08:43:40;20.40;;;9.98;;
19434;SDS011;9853;50.848;4.108;2023-04-27T08:45:46;21.40;;;9.88;;
19434;SDS011;9853;50.848;4.108;2023-04-27T08:47:49;21.80;;;10.45;;
19434;SDS011;9853;50.848;4.108;2023-04-27T08:49:50;18.38;;;10.60;;
19434;SDS011;9853;50.848;4.108;2023-04-27T08:51:51;18.88;;;10.50;;
19434;SDS011;9853;50.848;4.108;2023-04-27T08:53:53;23.92;;;10.43;;
19434;SDS011;9853;50.848;4.108;2023-04-27T08:55:55;22.23;;;10.43;;
19434;SDS011;9853;50.848;4.108;2023-04-27T08:57:57;19.02;;;10.60;;
19434;SDS011;9853;50.848;4.108;2023-04-27T08:59:58;15.68;;;9.35;;
19434;SDS011;9853;50.848;4.108;2023-04-27T09:02:00;20.33;;;9.90;;
19434;SDS011;9853;50.848;4.108;2023-04-27T09:04:00;21.35;;;10.05;;
19434;SDS011;9853;50.848;4.108;2023-04-27T09:06:02;18.17;;;9.88;;
19434;SDS011;9853;50.848;4.108;2023-04-27T09:08:04;22.55;;;10.85;;
19434;SDS011;9853;50.848;4.108;2023-04-27T09:10:07;21.08;;;9.90;;
19434;SDS011;9853;50.848;4.108;2023-04-27T09:12:17;20.80;;;10.27;;
19434;SDS011;9853;50.848;4.108;2023-04-27T09:14:22;19.42;;;9.60;;
19434;SDS011;9853;50.848;4.108;2023-04-27T09:16:24;16.55;;;10.07;;
19434;SDS011;9853;50.848;4.108;2023-04-27T09:18:27;16.58;;;9.25;;
19434;SDS011;9853;50.848;4.108;2023-04-27T09:20:29;19.38;;;9.77;;
19434;SDS011;9853;50.848;4.108;2023-04-27T09:22:30;13.43;;;8.32;;
19434;SDS011;9853;50.848;4.108;2023-04-27T09:24:31;15.88;;;8.52;;
19434;SDS011;9853;50.848;4.108;2023-04-27T09:26:32;17.42;;;9.40;;
19434;SDS011;9853;50.848;4.108;2023-04-27T09:28:46;18.67;;;9.43;;
19434;SDS011;9853;50.848;4.108;2023-04-27T09:30:51;17.08;;;9.40;;
19434;SDS011;9853;50.848;4.108;2023-04-27T09:32:54;17.08;;;9.10;;
19434;SDS011;9853;50.848;4.108;2023-04-27T09:35:00;17.10;;;9.13;;
19434;SDS011;9853;50.848;4.108;2023-04-27T09:37:01;14.13;;;8.45;;
19434;SDS011;9853;50.848;4.108;2023-04-27T09:39:02;13.45;;;8.60;;
19434;SDS011;9853;50.848;4.108;2023-04-27T09:41:05;20.05;;;9.20;;
19434;SDS011;9853;50.848;4.108;2023-04-27T09:43:08;17.02;;;9.55;;
19434;SDS011;9853;50.848;4.108;2023-04-27T09:45:09;14.30;;;8.80;;
19434;SDS011;9853;50.848;4.108;2023-04-27T09:47:11;19.83;;;9.00;;
19434;SDS011;9853;50.848;4.108;2023-04-27T09:49:13;17.77;;;9.05;;
19434;SDS011;9853;50.848;4.108;2023-04-27T09:51:16;16.95;;;8.98;;
19434;SDS011;9853;50.848;4.108;2023-04-27T09:53:18;17.10;;;8.93;;
19434;SDS011;9853;50.848;4.108;2023-04-27T09:55:29;13.27;;;8.77;;
19434;SDS011;9853;50.848;4.108;2023-04-27T10:07:30;13.10;;;8.00;;
19434;SDS011;9853;50.848;4.108;2023-04-27T10:09:49;15.10;;;8.05;;
19434;SDS011;9853;50.848;4.108;2023-04-27T10:11:52;16.20;;;8.10;;
19434;SDS011;9853;50.848;4.108;2023-04-27T10:13:53;11.23;;;7.10;;
19434;SDS011;9853;50.848;4.108;2023-04-27T10:15:55;13.93;;;7.57;;
19434;SDS011;9853;50.848;4.108;2023-04-27T10:18:02;14.65;;;8.20;;
19434;SDS011;9853;50.848;4.108;2023-04-27T10:20:05;16.88;;;9.00;;
19434;SDS011;9853;50.848;4.108;2023-04-27T10:22:08;14.43;;;8.82;;
19434;SDS011;9853;50.848;4.108;2023-04-27T10:24:08;15.07;;;8.65;;
19434;SDS011;9853;50.848;4.108;2023-04-27T10:26:09;19.23;;;8.05;;
19434;SDS011;9853;50.848;4.108;2023-04-27T10:28:14;17.13;;;8.32;;
19434;SDS011;9853;50.848;4.108;2023-04-27T10:30:17;17.48;;;8.90;;
19434;SDS011;9853;50.848;4.108;2023-04-27T10:32:20;14.23;;;8.85;;
19434;SDS011;9853;50.848;4.108;2023-04-27T10:34:23;16.45;;;8.20;;
19434;SDS011;9853;50.848;4.108;2023-04-27T10:36:33;13.73;;;9.32;;
19434;SDS011;9853;50.848;4.108;2023-04-27T10:38:38;17.30;;;9.25;;
19434;SDS011;9853;50.848;4.108;2023-04-27T10:40:39;16.58;;;8.68;;
19434;SDS011;9853;50.848;4.108;2023-04-27T10:42:40;14.02;;;8.48;;
19434;SDS011;9853;50.848;4.108;2023-04-27T10:44:41;14.93;;;8.05;;
19434;SDS011;9853;50.848;4.108;2023-04-27T10:46:48;13.65;;;8.15;;
19434;SDS011;9853;50.848;4.108;2023-04-27T10:48:50;12.70;;;8.85;;
19434;SDS011;9853;50.848;4.108;2023-04-27T10:50:51;15.43;;;8.35;;
19434;SDS011;9853;50.848;4.108;2023-04-27T10:52:52;14.02;;;7.53;;
19434;SDS011;9853;50.848;4.108;2023-04-27T10:54:53;11.60;;;7.55;;
19434;SDS011;9853;50.848;4.108;2023-04-27T10:57:15;12.45;;;7.38;;
19434;SDS011;9853;50.848;4.108;2023-04-27T10:59:15;13.75;;;8.07;;
19434;SDS011;9853;50.848;4.108;2023-04-27T11:01:22;15.73;;;8.85;;
19434;SDS011;9853;50.848;4.108;2023-04-27T11:03:28;15.73;;;9.40;;
19434;SDS011;9853;50.848;4.108;2023-04-27T11:05:29;16.17;;;8.82;;
19434;SDS011;9853;50.848;4.108;2023-04-27T11:07:32;15.73;;;9.02;;
19434;SDS011;9853;50.848;4.108;2023-04-27T11:09:34;14.23;;;8.57;;
19434;SDS011;9853;50.848;4.108;2023-04-27T11:11:36;15.77;;;9.02;;
19434;SDS011;9853;50.848;4.108;2023-04-27T11:13:37;19.83;;;9.63;;
19434;SDS011;9853;50.848;4.108;2023-04-27T11:15:48;17.25;;;8.82;;
19434;SDS011;9853;50.848;4.108;2023-04-27T11:18:03;18.50;;;9.77;;
19434;SDS011;9853;50.848;4.108;2023-04-27T11:20:05;20.27;;;10.65;;
19434;SDS011;9853;50.848;4.108;2023-04-27T11:22:09;16.02;;;9.80;;
19434;SDS011;9853;50.848;4.108;2023-04-27T11:24:10;15.63;;;9.10;;
19434;SDS011;9853;50.848;4.108;2023-04-27T11:26:21;18.17;;;9.07;;
19434;SDS011;9853;50.848;4.108;2023-04-27T11:28:24;16.33;;;8.45;;
19434;SDS011;9853;50.848;4.108;2023-04-27T11:30:25;14.85;;;8.20;;
19434;SDS011;9853;50.848;4.108;2023-04-27T11:32:26;18.17;;;8.73;;
19434;SDS011;9853;50.848;4.108;2023-04-27T11:34:27;21.42;;;8.88;;
19434;SDS011;9853;50.848;4.108;2023-04-27T11:36:33;15.55;;;8.52;;
19434;SDS011;9853;50.848;4.108;2023-04-27T11:38:34;13.52;;;8.48;;
19434;SDS011;9853;50.848;4.108;2023-04-27T11:40:35;21.08;;;8.60;;
19434;SDS011;9853;50.848;4.108;2023-04-27T11:42:40;13.18;;;8.50;;
19434;SDS011;9853;50.848;4.108;2023-04-27T11:44:48;16.63;;;8.50;;
19434;SDS011;9853;50.848;4.108;2023-04-27T11:46:53;16.10;;;8.25;;
19434;SDS011;9853;50.848;4.108;2023-04-27T11:48:59;16.95;;;8.50;;
19434;SDS011;9853;50.848;4.108;2023-04-27T11:51:01;14.75;;;9.27;;
19434;SDS011;9853;50.848;4.108;2023-04-27T11:53:02;17.42;;;8.80;;
19434;SDS011;9853;50.848;4.108;2023-04-27T11:55:03;16.05;;;9.18;;
19434;SDS011;9853;50.848;4.108;2023-04-27T11:57:04;17.17;;;8.13;;
19434;SDS011;9853;50.848;4.108;2023-04-27T11:59:16;14.10;;;8.30;;
19434;SDS011;9853;50.848;4.108;2023-04-27T12:01:20;18.02;;;8.40;;
19434;SDS011;9853;50.848;4.108;2023-04-27T12:03:21;19.27;;;8.82;;
19434;SDS011;9853;50.848;4.108;2023-04-27T12:05:22;15.60;;;8.57;;
19434;SDS011;9853;50.848;4.108;2023-04-27T12:07:23;17.02;;;8.60;;
19434;SDS011;9853;50.848;4.108;2023-04-27T12:09:24;16.27;;;8.00;;
19434;SDS011;9853;50.848;4.108;2023-04-27T12:11:25;15.85;;;8.15;;
19434;SDS011;9853;50.848;4.108;2023-04-27T12:13:26;12.70;;;8.43;;
19434;SDS011;9853;50.848;4.108;2023-04-27T12:15:27;16.13;;;8.73;;
19434;SDS011;9853;50.848;4.108;2023-04-27T12:17:28;20.13;;;9.05;;